createdAt,value
2018-10-05T00:00:06.858Z,0
2018-10-05T00:01:07.923Z,0
2018-10-05T00:02:08.433Z,0
2018-10-05T00:03:10.221Z,0
2018-10-05T00:04:10.724Z,0
2018-10-05T00:05:11.787Z,0
2018-10-05T00:06:12.124Z,0
2018-10-05T00:07:12.908Z,0
2018-10-05T00:08:13.693Z,0
2018-10-05T00:09:14.309Z,0
2018-10-05T00:10:15.202Z,0
2018-10-05T00:11:15.753Z,0
2018-10-05T00:12:16.534Z,0
2018-10-05T00:13:18.164Z,0
2018-10-05T00:14:17.836Z,0
2018-10-05T00:15:18.347Z,0
2018-10-05T00:16:19.682Z,0
2018-10-05T00:17:19.467Z,0
2018-10-05T00:18:20.252Z,0
2018-10-05T00:19:20.756Z,0
2018-10-05T00:20:22.503Z,0
2018-10-05T00:21:22.303Z,0
2018-10-05T00:22:23.089Z,0
2018-10-05T00:23:23.868Z,0
2018-10-05T00:24:24.132Z,0
2018-10-05T00:25:25.189Z,0
2018-10-05T00:26:25.690Z,0
2018-10-05T00:27:28.029Z,0
2018-10-05T00:28:28.644Z,0
2018-10-05T00:29:27.872Z,0
2018-10-05T00:30:29.933Z,0
2018-10-05T00:31:30.439Z,0
2018-10-05T00:32:33.898Z,0
2018-10-05T00:33:33.323Z,0
2018-10-05T00:34:34.135Z,0
2018-10-05T00:35:34.194Z,0
2018-10-05T00:36:36.086Z,0
2018-10-05T00:37:36.592Z,0
2018-10-05T00:38:38.379Z,0
2018-10-05T00:39:39.830Z,0
2018-10-05T00:40:39.305Z,0
2018-10-05T00:41:40.364Z,0
2018-10-05T00:42:41.155Z,0
2018-10-05T00:43:42.498Z,0
2018-10-05T00:44:43.725Z,0
2018-10-05T00:45:44.242Z,0
2018-10-05T00:46:44.758Z,0
2018-10-05T00:47:45.830Z,0
2018-10-05T00:48:46.626Z,0
2018-10-05T00:49:47.974Z,0
2018-10-05T00:50:48.771Z,0
2018-10-05T00:51:49.846Z,0
2018-10-05T00:52:51.635Z,0
2018-10-05T00:53:51.449Z,0
2018-10-05T00:54:52.725Z,0
2018-10-05T00:55:53.242Z,0
2018-10-05T00:56:54.320Z,0
2018-10-05T00:57:55.111Z,0
2018-10-05T00:58:55.906Z,0
2018-10-05T00:59:56.424Z,0
2018-10-05T01:00:57.505Z,0
2018-10-05T01:01:58.856Z,0
2018-10-05T01:02:59.373Z,0
2018-10-05T01:03:59.889Z,0
2018-10-05T01:05:00.443Z,0
2018-10-05T01:06:01.244Z,0
2018-10-05T01:07:01.752Z,0
2018-10-05T01:08:03.377Z,0
2018-10-05T01:09:02.895Z,0
2018-10-05T01:10:03.966Z,0
2018-10-05T01:11:04.479Z,0
2018-10-05T01:12:05.553Z,0
2018-10-05T01:13:06.351Z,0
2018-10-05T01:14:07.420Z,0
2018-10-05T01:15:08.250Z,0
2018-10-05T01:16:09.043Z,0
2018-10-05T01:17:09.837Z,0
2018-10-05T01:18:11.188Z,0
2018-10-05T01:19:11.702Z,0
2018-10-05T01:20:13.221Z,0
2018-10-05T01:21:13.738Z,0
2018-10-05T01:22:15.251Z,0
2018-10-05T01:23:16.044Z,0
2018-10-05T01:24:16.834Z,0
2018-10-05T01:25:16.984Z,0
2018-10-05T01:26:17.775Z,0
2018-10-05T01:27:18.847Z,0
2018-10-05T01:28:19.364Z,0
2018-10-05T01:29:21.161Z,0
2018-10-05T01:30:21.955Z,0
2018-10-05T01:31:24.025Z,0
2018-10-05T01:32:24.393Z,0
2018-10-05T01:33:25.187Z,0
2018-10-05T01:34:26.256Z,0
2018-10-05T01:35:28.064Z,0
2018-10-05T01:36:28.146Z,0
2018-10-05T01:37:29.382Z,0
2018-10-05T01:38:31.175Z,0
2018-10-05T01:39:31.695Z,0
2018-10-05T01:40:32.486Z,0
2018-10-05T01:41:33.003Z,0
2018-10-05T01:42:34.360Z,0
2018-10-05T01:43:34.153Z,0
2018-10-05T01:44:35.228Z,0
2018-10-05T01:45:36.776Z,0
2018-10-05T01:46:38.125Z,0
2018-10-05T01:47:39.204Z,0
2018-10-05T01:48:40.556Z,0
2018-10-05T01:49:41.183Z,0
2018-10-05T01:50:41.257Z,0
2018-10-05T01:51:42.050Z,0
2018-10-05T01:52:42.153Z,0
2018-10-05T01:53:42.706Z,0
2018-10-05T01:54:44.057Z,0
2018-10-05T01:55:44.613Z,0
2018-10-05T01:56:45.683Z,0
2018-10-05T01:57:46.754Z,0
2018-10-05T01:58:48.116Z,0
2018-10-05T01:59:48.187Z,0
2018-10-05T02:00:50.265Z,0
2018-10-05T02:01:50.335Z,0
2018-10-05T02:02:50.852Z,0
2018-10-05T02:03:51.928Z,0
2018-10-05T02:04:52.999Z,0
2018-10-05T02:05:53.552Z,0
2018-10-05T02:06:54.343Z,0
2018-10-05T02:07:55.419Z,0
2018-10-05T02:08:56.212Z,0
2018-10-05T02:09:57.011Z,0
2018-10-05T02:10:57.636Z,0
2018-10-05T02:11:58.988Z,0
2018-10-05T02:12:59.782Z,0
2018-10-05T02:14:00.579Z,0
2018-10-05T02:15:01.095Z,0
2018-10-05T02:16:02.898Z,0
2018-10-05T02:17:02.973Z,0
2018-10-05T02:18:03.214Z,0
2018-10-05T02:19:05.558Z,0
2018-10-05T02:20:06.078Z,0
2018-10-05T02:21:06.596Z,0
2018-10-05T02:22:07.117Z,0
2018-10-05T02:23:07.628Z,0
2018-10-05T02:24:08.993Z,0
2018-10-05T02:25:08.785Z,0
2018-10-05T02:26:09.476Z,0
2018-10-05T02:27:11.547Z,0
2018-10-05T02:28:13.173Z,0
2018-10-05T02:29:12.968Z,0
2018-10-05T02:30:13.772Z,0
2018-10-05T02:31:15.398Z,0
2018-10-05T02:32:15.195Z,0
2018-10-05T02:33:16.138Z,0
2018-10-05T02:34:17.759Z,0
2018-10-05T02:35:18.240Z,0
2018-10-05T02:36:18.491Z,0
2018-10-05T02:37:20.123Z,0
2018-10-05T02:38:19.634Z,0
2018-10-05T02:39:21.436Z,0
2018-10-05T02:40:22.063Z,0
2018-10-05T02:41:23.133Z,0
2018-10-05T02:42:23.930Z,0
2018-10-05T02:43:25.559Z,0
2018-10-05T02:44:25.359Z,0
2018-10-05T02:45:27.707Z,0
2018-10-05T02:46:28.512Z,0
2018-10-05T02:47:28.863Z,0
2018-10-05T02:48:29.656Z,0
2018-10-05T02:49:31.291Z,0
2018-10-05T02:50:32.219Z,0
2018-10-05T02:51:32.291Z,0
2018-10-05T02:52:32.084Z,0
2018-10-05T02:53:33.157Z,0
2018-10-05T02:54:33.681Z,0
2018-10-05T02:55:35.315Z,0
2018-10-05T02:56:35.695Z,0
2018-10-05T02:57:36.213Z,0
2018-10-05T02:58:37.291Z,0
2018-10-05T02:59:37.808Z,0
2018-10-05T03:00:38.885Z,0
2018-10-05T03:01:39.956Z,0
2018-10-05T03:02:41.893Z,0
2018-10-05T03:03:41.408Z,0
2018-10-05T03:04:43.899Z,0
2018-10-05T03:05:44.570Z,0
2018-10-05T03:06:45.374Z,0
2018-10-05T03:07:46.168Z,0
2018-10-05T03:08:47.249Z,0
2018-10-05T03:09:47.886Z,0
2018-10-05T03:10:48.976Z,0
2018-10-05T03:11:49.763Z,0
2018-10-05T03:12:51.122Z,0
2018-10-05T03:13:50.905Z,0
2018-10-05T03:14:51.425Z,0
2018-10-05T03:15:52.787Z,0
2018-10-05T03:16:53.321Z,0
2018-10-05T03:17:53.670Z,0
2018-10-05T03:18:54.470Z,0
2018-10-05T03:19:57.347Z,0
2018-10-05T03:20:57.407Z,0
2018-10-05T03:21:57.198Z,0
2018-10-05T03:22:59.383Z,0
2018-10-05T03:23:59.731Z,0
2018-10-05T03:24:59.249Z,0
2018-10-05T03:26:00.601Z,0
2018-10-05T03:26:59.874Z,0
2018-10-05T03:28:00.388Z,0
2018-10-05T03:29:01.180Z,0
2018-10-05T03:30:02.265Z,0
2018-10-05T03:31:03.065Z,0
2018-10-05T03:32:04.709Z,0
2018-10-05T03:33:05.058Z,0
2018-10-05T03:34:05.708Z,0
2018-10-05T03:35:07.334Z,0
2018-10-05T03:36:07.691Z,0
2018-10-05T03:37:08.213Z,0
2018-10-05T03:38:09.021Z,0
2018-10-05T03:39:10.373Z,0
2018-10-05T03:40:11.442Z,0
2018-10-05T03:41:12.346Z,0
2018-10-05T03:42:12.973Z,0
2018-10-05T03:43:12.487Z,0
2018-10-05T03:44:13.555Z,0
2018-10-05T03:45:14.071Z,0
2018-10-05T03:46:14.924Z,0
2018-10-05T03:47:16.587Z,0
2018-10-05T03:48:16.940Z,0
2018-10-05T03:49:17.010Z,0
2018-10-05T03:50:18.082Z,0
2018-10-05T03:51:18.152Z,0
2018-10-05T03:52:19.793Z,0
2018-10-05T03:53:20.700Z,0
2018-10-05T03:54:20.492Z,0
2018-10-05T03:55:21.843Z,0
2018-10-05T03:56:22.917Z,0
2018-10-05T03:57:23.633Z,0
2018-10-05T03:58:23.702Z,0
2018-10-05T03:59:24.493Z,0
2018-10-05T04:00:25.008Z,0
2018-10-05T04:01:25.805Z,0
2018-10-05T04:02:27.436Z,0
2018-10-05T04:03:27.504Z,0
2018-10-05T04:04:28.582Z,0
2018-10-05T04:05:29.931Z,0
2018-10-05T04:06:30.019Z,0
2018-10-05T04:07:31.420Z,0
2018-10-05T04:08:33.330Z,0
2018-10-05T04:09:33.961Z,0
2018-10-05T04:10:34.757Z,0
2018-10-05T04:11:35.833Z,0
2018-10-05T04:12:36.186Z,0
2018-10-05T04:13:36.992Z,0
2018-10-05T04:14:37.217Z,0
2018-10-05T04:15:38.734Z,0
2018-10-05T04:16:39.536Z,0
2018-10-05T04:17:41.614Z,0
2018-10-05T04:18:42.691Z,0
2018-10-05T04:19:43.033Z,0
2018-10-05T04:20:44.109Z,0
2018-10-05T04:21:45.183Z,0
2018-10-05T04:22:45.696Z,0
2018-10-05T04:23:48.050Z,0
2018-10-05T04:24:48.957Z,0
2018-10-05T04:25:48.755Z,0
2018-10-05T04:26:48.997Z,0
2018-10-05T04:27:51.660Z,0
2018-10-05T04:28:52.286Z,0
2018-10-05T04:29:52.079Z,0
2018-10-05T04:30:53.152Z,0
2018-10-05T04:31:52.667Z,0
2018-10-05T04:32:54.184Z,0
2018-10-05T04:33:55.809Z,0
2018-10-05T04:34:56.154Z,0
2018-10-05T04:35:56.945Z,0
2018-10-05T04:36:57.461Z,0
2018-10-05T04:37:58.999Z,0
2018-10-05T04:38:58.517Z,0
2018-10-05T04:40:00.311Z,0
2018-10-05T04:41:02.024Z,0
2018-10-05T04:42:02.719Z,0
2018-10-05T04:43:03.627Z,0
2018-10-05T04:44:03.163Z,0
2018-10-05T04:45:05.089Z,0
2018-10-05T04:46:05.158Z,0
2018-10-05T04:47:07.061Z,0
2018-10-05T04:48:07.725Z,0
2018-10-05T04:49:07.518Z,0
2018-10-05T04:50:07.887Z,0
2018-10-05T04:51:09.242Z,0
2018-10-05T04:52:10.217Z,0
2018-10-05T04:53:10.006Z,0
2018-10-05T04:54:10.802Z,0
2018-10-05T04:55:12.431Z,0
2018-10-05T04:56:12.223Z,0
2018-10-05T04:57:13.573Z,0
2018-10-05T04:58:13.677Z,0
2018-10-05T04:59:15.029Z,0
2018-10-05T05:00:14.827Z,0
2018-10-05T05:01:16.171Z,0
2018-10-05T05:02:16.963Z,0
2018-10-05T05:03:18.106Z,0
2018-10-05T05:04:18.346Z,0
2018-10-05T05:05:19.137Z,0
2018-10-05T05:06:19.654Z,0
2018-10-05T05:07:20.168Z,0
2018-10-05T05:08:21.693Z,0
2018-10-05T05:09:22.485Z,0
2018-10-05T05:10:24.115Z,0
2018-10-05T05:11:23.905Z,0
2018-10-05T05:12:24.978Z,0
2018-10-05T05:13:24.769Z,0
2018-10-05T05:14:25.566Z,0
2018-10-05T05:15:26.641Z,0
2018-10-05T05:16:27.770Z,0
2018-10-05T05:17:28.562Z,0
2018-10-05T05:18:30.099Z,5.63
2018-10-05T05:19:30.254Z,5.63
2018-10-05T05:20:31.597Z,5.63
2018-10-05T05:21:32.117Z,5.63
2018-10-05T05:22:32.909Z,5.63
2018-10-05T05:23:33.426Z,5.63
2018-10-05T05:24:34.222Z,5.63
2018-10-05T05:25:35.300Z,5.63
2018-10-05T05:26:36.372Z,11.25
2018-10-05T05:27:36.894Z,11.25
2018-10-05T05:28:37.420Z,11.25
2018-10-05T05:29:39.061Z,11.25
2018-10-05T05:30:40.685Z,11.25
2018-10-05T05:31:40.201Z,11.25
2018-10-05T05:32:42.276Z,11.25
2018-10-05T05:33:45.594Z,16.88
2018-10-05T05:34:44.110Z,16.88
2018-10-05T05:35:45.463Z,16.88
2018-10-05T05:36:46.821Z,16.88
2018-10-05T05:37:46.335Z,16.88
2018-10-05T05:38:47.865Z,16.88
2018-10-05T05:39:48.663Z,22.5
2018-10-05T05:40:49.739Z,22.5
2018-10-05T05:41:50.537Z,22.5
2018-10-05T05:42:51.055Z,22.5
2018-10-05T05:43:52.426Z,22.5
2018-10-05T05:44:51.947Z,22.5
2018-10-05T05:45:52.188Z,28.13
2018-10-05T05:46:55.784Z,28.13
2018-10-05T05:47:55.153Z,28.13
2018-10-05T05:48:56.397Z,28.13
2018-10-05T05:49:57.198Z,28.13
2018-10-05T05:50:58.276Z,28.13
2018-10-05T05:51:58.792Z,28.13
2018-10-05T05:53:00.602Z,33.75
2018-10-05T05:54:02.939Z,33.75
2018-10-05T05:55:02.438Z,33.75
2018-10-05T05:56:02.960Z,33.75
2018-10-05T05:57:04.247Z,33.75
2018-10-05T05:58:05.492Z,33.75
2018-10-05T05:59:07.297Z,39.38
2018-10-05T06:00:08.377Z,39.38
2018-10-05T06:01:10.021Z,39.38
2018-10-05T06:02:09.787Z,39.38
2018-10-05T06:03:10.842Z,39.38
2018-10-05T06:04:12.246Z,39.38
2018-10-05T06:05:12.744Z,39.38
2018-10-05T06:06:12.260Z,45
2018-10-05T06:07:13.336Z,45
2018-10-05T06:08:15.593Z,45
2018-10-05T06:09:14.569Z,56.25
2018-10-05T06:10:14.928Z,50.63
2018-10-05T06:11:16.004Z,50.63
2018-10-05T06:12:17.087Z,50.63
2018-10-05T06:13:17.899Z,50.63
2018-10-05T06:14:18.705Z,50.63
2018-10-05T06:15:20.887Z,50.63
2018-10-05T06:16:20.132Z,50.63
2018-10-05T06:17:20.869Z,50.63
2018-10-05T06:18:21.503Z,67.5
2018-10-05T06:19:21.029Z,67.5
2018-10-05T06:20:21.825Z,56.25
2018-10-05T06:21:23.743Z,56.25
2018-10-05T06:22:25.166Z,56.25
2018-10-05T06:23:24.490Z,56.25
2018-10-05T06:24:26.160Z,56.25
2018-10-05T06:25:27.119Z,61.88
2018-10-05T06:26:26.634Z,61.88
2018-10-05T06:27:30.023Z,61.88
2018-10-05T06:28:29.850Z,61.88
2018-10-05T06:29:31.114Z,61.88
2018-10-05T06:30:38.391Z,67.5
2018-10-05T06:30:46.395Z,67.5
2018-10-05T06:31:45.285Z,67.5
2018-10-05T06:32:45.526Z,67.5
2018-10-05T06:33:47.095Z,67.5
2018-10-05T06:34:47.898Z,67.5
2018-10-05T06:35:48.422Z,67.5
2018-10-05T06:36:50.376Z,73.13
2018-10-05T06:37:50.449Z,73.13
2018-10-05T06:38:51.298Z,67.5
2018-10-05T06:39:52.499Z,67.5
2018-10-05T06:40:51.740Z,67.5
2018-10-05T06:41:53.543Z,73.13
2018-10-05T06:42:54.057Z,73.13
2018-10-05T06:43:54.854Z,78.75
2018-10-05T06:44:55.371Z,84.38
2018-10-05T06:45:57.269Z,90
2018-10-05T06:46:58.347Z,90
2018-10-05T06:47:58.141Z,84.38
2018-10-05T06:48:59.500Z,129.38
2018-10-05T06:50:00.616Z,286.88
2018-10-05T06:51:01.693Z,860.63
2018-10-05T06:52:01.977Z,1085.63
2018-10-05T06:53:05.403Z,1035
2018-10-05T06:54:04.093Z,489.38
2018-10-05T06:55:04.462Z,106.88
2018-10-05T06:56:05.566Z,146.25
2018-10-05T06:57:06.101Z,579.38
2018-10-05T06:58:07.756Z,1102.5
2018-10-05T06:59:08.447Z,1226.25
2018-10-05T07:00:08.529Z,821.25
2018-10-05T07:01:09.291Z,360
2018-10-05T07:02:10.817Z,343.13
2018-10-05T07:03:10.801Z,855
2018-10-05T07:04:11.888Z,725.63
2018-10-05T07:05:12.414Z,438.75
2018-10-05T07:06:12.938Z,225
2018-10-05T07:07:13.462Z,157.5
2018-10-05T07:08:15.057Z,146.25
2018-10-05T07:09:15.579Z,123.75
2018-10-05T07:10:16.112Z,135
2018-10-05T07:11:16.696Z,151.88
2018-10-05T07:12:17.997Z,129.38
2018-10-05T07:13:19.081Z,129.38
2018-10-05T07:14:19.617Z,129.38
2018-10-05T07:15:20.428Z,151.88
2018-10-05T07:16:22.070Z,146.25
2018-10-05T07:17:21.874Z,129.38
2018-10-05T07:18:22.674Z,129.38
2018-10-05T07:19:23.756Z,140.63
2018-10-05T07:20:24.921Z,157.5
2018-10-05T07:21:26.886Z,168.75
2018-10-05T07:22:28.129Z,326.25
2018-10-05T07:23:27.002Z,388.13
2018-10-05T07:24:27.538Z,241.88
2018-10-05T07:25:28.613Z,208.13
2018-10-05T07:26:29.710Z,185.63
2018-10-05T07:27:29.958Z,478.13
2018-10-05T07:28:33.576Z,826.88
2018-10-05T07:29:32.204Z,765
2018-10-05T07:30:33.564Z,438.75
2018-10-05T07:31:34.649Z,208.13
2018-10-05T07:32:35.359Z,163.13
2018-10-05T07:33:35.890Z,191.25
2018-10-05T07:34:36.969Z,168.75
2018-10-05T07:35:37.783Z,168.75
2018-10-05T07:36:38.586Z,151.88
2018-10-05T07:37:39.666Z,140.63
2018-10-05T07:38:39.747Z,140.63
2018-10-05T07:39:40.551Z,140.63
2018-10-05T07:40:41.917Z,270
2018-10-05T07:41:41.722Z,826.88
2018-10-05T07:42:44.581Z,635.63
2018-10-05T07:43:42.940Z,253.13
2018-10-05T07:44:44.834Z,213.75
2018-10-05T07:45:44.080Z,292.5
2018-10-05T07:46:46.534Z,337.5
2018-10-05T07:47:46.731Z,275.63
2018-10-05T07:48:47.812Z,219.38
2018-10-05T07:49:49.554Z,135
2018-10-05T07:50:49.915Z,140.63
2018-10-05T07:51:52.170Z,135
2018-10-05T07:52:52.231Z,135
2018-10-05T07:53:54.734Z,135
2018-10-05T07:54:54.581Z,135
2018-10-05T07:55:55.658Z,135
2018-10-05T07:56:57.158Z,135
2018-10-05T07:57:59.484Z,135
2018-10-05T07:58:58.871Z,135
2018-10-05T07:59:59.960Z,135
2018-10-05T08:01:00.484Z,135
2018-10-05T08:02:01.571Z,135
2018-10-05T08:03:02.602Z,135
2018-10-05T08:04:03.402Z,135
2018-10-05T08:05:04.537Z,140.63
2018-10-05T08:06:05.715Z,135
2018-10-05T08:07:07.074Z,140.63
2018-10-05T08:08:10.575Z,140.63
2018-10-05T08:09:07.852Z,135
2018-10-05T08:10:08.377Z,135
2018-10-05T08:11:09.175Z,135
2018-10-05T08:12:10.736Z,140.63
2018-10-05T08:13:10.552Z,135
2018-10-05T08:14:10.798Z,135
2018-10-05T08:15:12.348Z,140.63
2018-10-05T08:16:12.874Z,140.63
2018-10-05T08:17:13.672Z,140.63
2018-10-05T08:18:15.475Z,140.63
2018-10-05T08:19:16.839Z,140.63
2018-10-05T08:20:17.370Z,140.63
2018-10-05T08:21:18.226Z,140.63
2018-10-05T08:22:22.039Z,140.63
2018-10-05T08:23:19.728Z,140.63
2018-10-05T08:24:20.813Z,140.63
2018-10-05T08:25:20.893Z,140.63
2018-10-05T08:26:21.693Z,140.63
2018-10-05T08:27:22.495Z,146.25
2018-10-05T08:28:26.653Z,157.5
2018-10-05T08:29:27.207Z,146.25
2018-10-05T08:30:27.568Z,140.63
2018-10-05T08:31:27.935Z,140.63
2018-10-05T08:32:29.019Z,140.63
2018-10-05T08:33:29.339Z,163.13
2018-10-05T08:34:31.917Z,174.38
2018-10-05T08:35:36.912Z,185.63
2018-10-05T08:35:45.016Z,213.75
2018-10-05T08:36:44.954Z,157.5
2018-10-05T08:37:45.112Z,185.63
2018-10-05T08:38:44.807Z,326.25
2018-10-05T08:39:47.789Z,860.63
2018-10-05T08:40:47.516Z,675
2018-10-05T08:41:48.045Z,939.38
2018-10-05T08:42:48.573Z,1310.63
2018-10-05T08:44:08.065Z,703.13
2018-10-05T08:44:30.768Z,343.13
2018-10-05T08:45:27.178Z,517.5
2018-10-05T08:46:28.270Z,1001.25
2018-10-05T08:47:29.349Z,652.5
2018-10-05T08:48:29.885Z,253.13
2018-10-05T08:49:30.686Z,360
2018-10-05T08:50:33.043Z,326.25
2018-10-05T08:51:34.278Z,208.13
2018-10-05T08:52:34.021Z,185.63
2018-10-05T08:53:34.548Z,174.38
2018-10-05T08:54:36.630Z,185.63
2018-10-05T08:55:37.237Z,174.38
2018-10-05T08:56:38.325Z,157.5
2018-10-05T08:57:39.129Z,168.75
2018-10-05T08:58:53.483Z,157.5
2018-10-05T08:59:52.917Z,163.13
2018-10-05T09:00:52.770Z,174.38
2018-10-05T09:01:53.579Z,157.5
2018-10-05T09:02:54.114Z,157.5
2018-10-05T09:03:54.633Z,157.5
2018-10-05T09:04:56.497Z,163.13
2018-10-05T09:05:56.113Z,163.13
2018-10-05T09:06:57.208Z,168.75
2018-10-05T09:07:59.041Z,196.88
2018-10-05T09:09:00.129Z,174.38
2018-10-05T09:10:03.059Z,174.38
2018-10-05T09:11:01.705Z,163.13
2018-10-05T09:12:03.787Z,163.13
2018-10-05T09:13:03.594Z,157.5
2018-10-05T09:14:04.840Z,168.75
2018-10-05T09:15:07.275Z,168.75
2018-10-05T09:16:08.090Z,168.75
2018-10-05T09:17:08.309Z,168.75
2018-10-05T09:18:10.289Z,168.75
2018-10-05T09:19:09.806Z,168.75
2018-10-05T09:20:10.924Z,168.75
2018-10-05T09:21:12.000Z,168.75
2018-10-05T09:22:12.523Z,168.75
2018-10-05T09:23:15.160Z,168.75
2018-10-05T09:24:15.960Z,168.75
2018-10-05T09:25:15.957Z,180
2018-10-05T09:26:17.129Z,196.88
2018-10-05T09:27:17.218Z,185.63
2018-10-05T09:28:18.860Z,174.38
2018-10-05T09:29:19.228Z,168.75
2018-10-05T09:30:19.640Z,174.38
2018-10-05T09:31:20.722Z,174.38
2018-10-05T09:32:21.802Z,174.38
2018-10-05T09:33:22.603Z,174.38
2018-10-05T09:34:22.853Z,180
2018-10-05T09:35:24.934Z,174.38
2018-10-05T09:36:25.462Z,185.63
2018-10-05T09:37:27.637Z,191.25
2018-10-05T09:38:27.103Z,185.63
2018-10-05T09:39:27.904Z,191.25
2018-10-05T09:40:28.272Z,191.25
2018-10-05T09:41:28.800Z,180
2018-10-05T09:42:29.047Z,225
2018-10-05T09:43:30.414Z,691.88
2018-10-05T09:44:30.956Z,2030.63
2018-10-05T09:45:31.764Z,1715.63
2018-10-05T09:46:32.572Z,1704.38
2018-10-05T09:47:34.416Z,1423.13
2018-10-05T09:48:34.270Z,731.25
2018-10-05T09:49:34.803Z,1800
2018-10-05T09:50:35.369Z,2621.25
2018-10-05T09:51:36.458Z,2227.5
2018-10-05T09:52:38.222Z,2728.13
2018-10-05T09:53:37.426Z,3526.88
2018-10-05T09:54:39.135Z,3650.63
2018-10-05T09:55:40.221Z,3684.38
2018-10-05T09:56:41.326Z,3667.5
2018-10-05T09:57:41.896Z,3645
2018-10-05T09:58:44.152Z,3645
2018-10-05T09:59:46.640Z,3661.88
2018-10-05T10:00:45.124Z,3673.13
2018-10-05T10:01:45.843Z,3712.5
2018-10-05T10:02:47.269Z,3729.38
2018-10-05T10:03:47.630Z,3735
2018-10-05T10:04:49.037Z,3746.25
2018-10-05T10:05:50.935Z,3718.13
2018-10-05T10:06:53.317Z,3706.88
2018-10-05T10:07:55.142Z,3706.88
2018-10-05T10:08:52.261Z,3712.5
2018-10-05T10:09:59.047Z,3740.63
2018-10-05T10:10:05.823Z,3746.25
2018-10-05T10:11:06.668Z,3774.38
2018-10-05T10:12:07.952Z,3757.5
2018-10-05T10:13:09.365Z,3751.88
2018-10-05T10:14:09.111Z,3751.88
2018-10-05T10:15:09.921Z,3774.38
2018-10-05T10:16:11.247Z,3802.5
2018-10-05T10:17:11.570Z,3825
2018-10-05T10:18:13.311Z,3881.25
2018-10-05T10:19:13.519Z,3858.75
2018-10-05T10:20:15.170Z,3830.63
2018-10-05T10:21:15.954Z,3796.88
2018-10-05T10:22:17.493Z,3768.75
2018-10-05T10:23:18.713Z,3746.25
2018-10-05T10:24:20.968Z,3763.13
2018-10-05T10:25:22.065Z,3768.75
2018-10-05T10:26:20.413Z,3802.5
2018-10-05T10:27:20.757Z,3864.38
2018-10-05T10:28:23.362Z,3892.5
2018-10-05T10:29:25.746Z,3886.88
2018-10-05T10:30:24.994Z,3841.88
2018-10-05T10:31:26.043Z,3802.5
2018-10-05T10:32:28.998Z,3729.38
2018-10-05T10:33:26.968Z,3673.13
2018-10-05T10:34:30.012Z,3639.38
2018-10-05T10:35:29.599Z,3650.63
2018-10-05T10:36:30.988Z,3661.88
2018-10-05T10:37:31.177Z,3706.88
2018-10-05T10:38:31.714Z,3774.38
2018-10-05T10:39:31.988Z,3858.75
2018-10-05T10:40:33.356Z,3920.63
2018-10-05T10:41:34.707Z,3926.25
2018-10-05T10:42:36.443Z,3650.63
2018-10-05T10:43:36.676Z,3819.38
2018-10-05T10:44:37.493Z,3110.63
2018-10-05T10:45:38.365Z,2373.75
2018-10-05T10:46:39.195Z,2373.75
2018-10-05T10:47:40.393Z,1406.25
2018-10-05T10:48:41.253Z,776.25
2018-10-05T10:49:42.535Z,264.38
2018-10-05T10:50:42.344Z,540
2018-10-05T10:51:44.176Z,905.63
2018-10-05T10:52:44.267Z,630
2018-10-05T10:53:45.909Z,798.75
2018-10-05T10:54:45.723Z,1220.63
2018-10-05T10:55:47.656Z,1906.88
2018-10-05T10:56:47.189Z,2570.63
2018-10-05T10:57:49.281Z,1530
2018-10-05T10:58:49.816Z,826.88
2018-10-05T10:59:51.608Z,1226.25
2018-10-05T11:00:53.884Z,1451.25
2018-10-05T11:01:52.877Z,2193.75
2018-10-05T11:02:53.590Z,1372.5
2018-10-05T11:03:55.478Z,1395
2018-10-05T11:04:58.117Z,2278.13
2018-10-05T11:05:57.008Z,2964.38
2018-10-05T11:06:57.711Z,3307.5
2018-10-05T11:07:58.939Z,2863.13
2018-10-05T11:08:59.195Z,1546.88
2018-10-05T11:10:00.979Z,1822.5
2018-10-05T11:11:01.557Z,1608.75
2018-10-05T11:12:02.460Z,1383.75
2018-10-05T11:13:09.568Z,2008.13
2018-10-05T11:13:18.049Z,1918.13
2018-10-05T11:14:19.908Z,1372.5
2018-10-05T11:15:18.203Z,2047.5
2018-10-05T11:16:19.573Z,2340
2018-10-05T11:17:20.108Z,2542.5
2018-10-05T11:18:21.152Z,2604.38
2018-10-05T11:19:20.964Z,1828.13
2018-10-05T11:20:21.874Z,1383.75
2018-10-05T11:21:23.193Z,821.25
2018-10-05T11:22:24.647Z,1310.63
2018-10-05T11:23:27.174Z,1586.25
2018-10-05T11:24:26.608Z,607.5
2018-10-05T11:25:27.807Z,354.38
2018-10-05T11:26:27.902Z,455.63
2018-10-05T11:27:28.737Z,275.63
2018-10-05T11:28:29.824Z,320.63
2018-10-05T11:29:31.325Z,247.5
2018-10-05T11:30:32.258Z,253.13
2018-10-05T11:31:33.119Z,315
2018-10-05T11:32:34.225Z,303.75
2018-10-05T11:33:35.036Z,247.5
2018-10-05T11:34:35.852Z,225
2018-10-05T11:35:37.535Z,292.5
2018-10-05T11:36:37.649Z,292.5
2018-10-05T11:37:37.455Z,309.38
2018-10-05T11:38:38.708Z,309.38
2018-10-05T11:39:39.799Z,528.75
2018-10-05T11:40:41.563Z,613.13
2018-10-05T11:41:41.721Z,534.38
2018-10-05T11:42:55.961Z,275.63
2018-10-05T11:43:55.807Z,348.75
2018-10-05T11:44:56.901Z,309.38
2018-10-05T11:45:57.434Z,337.5
2018-10-05T11:46:58.242Z,714.38
2018-10-05T11:47:59.064Z,742.5
2018-10-05T11:48:59.686Z,478.13
2018-10-05T11:50:01.711Z,388.13
2018-10-05T11:51:01.775Z,225
2018-10-05T11:52:01.604Z,326.25
2018-10-05T11:53:04.395Z,286.88
2018-10-05T11:54:02.733Z,1181.25
2018-10-05T11:55:06.625Z,2272.5
2018-10-05T11:56:06.995Z,1867.5
2018-10-05T11:57:06.807Z,838.13
2018-10-05T11:58:07.361Z,725.63
2018-10-05T11:59:08.469Z,410.63
2018-10-05T12:00:09.793Z,264.38
2018-10-05T12:01:10.711Z,303.75
2018-10-05T12:02:11.548Z,320.63
2018-10-05T12:03:12.635Z,736.88
2018-10-05T12:04:12.987Z,1715.63
2018-10-05T12:05:14.938Z,1715.63
2018-10-05T12:06:14.587Z,1839.38
2018-10-05T12:07:15.290Z,2548.13
2018-10-05T12:08:15.899Z,2469.38
2018-10-05T12:09:17.309Z,905.63
2018-10-05T12:10:19.197Z,855
2018-10-05T12:11:19.500Z,585
2018-10-05T12:12:20.594Z,1119.38
2018-10-05T12:13:21.397Z,1074.38
2018-10-05T12:14:22.873Z,781.88
2018-10-05T12:15:23.680Z,1569.38
2018-10-05T12:16:24.487Z,1231.88
2018-10-05T12:17:26.154Z,1552.5
2018-10-05T12:18:26.795Z,2739.38
2018-10-05T12:19:26.885Z,2930.63
2018-10-05T12:20:28.249Z,2958.75
2018-10-05T12:21:29.352Z,3121.88
2018-10-05T12:22:30.732Z,2891.25
2018-10-05T12:23:30.987Z,2790
2018-10-05T12:24:31.837Z,2536.88
2018-10-05T12:25:32.647Z,1867.5
2018-10-05T12:26:33.897Z,2255.63
2018-10-05T12:27:34.329Z,1468.13
2018-10-05T12:28:34.882Z,2570.63
2018-10-05T12:29:35.703Z,2953.13
2018-10-05T12:30:37.071Z,3105
2018-10-05T12:31:37.438Z,3060
2018-10-05T12:32:38.527Z,2992.5
2018-10-05T12:33:39.617Z,2812.5
2018-10-05T12:34:40.604Z,2340
2018-10-05T12:35:43.331Z,1884.38
2018-10-05T12:36:43.577Z,1113.75
2018-10-05T12:37:43.754Z,877.5
2018-10-05T12:38:44.637Z,444.38
2018-10-05T12:39:46.569Z,703.13
2018-10-05T12:40:46.103Z,821.25
2018-10-05T12:41:46.635Z,630
2018-10-05T12:42:47.164Z,315
2018-10-05T12:43:47.779Z,1226.25
2018-10-05T12:44:47.824Z,2739.38
2018-10-05T12:45:49.554Z,2863.13
2018-10-05T12:46:49.641Z,2846.25
2018-10-05T12:47:50.174Z,2863.13
2018-10-05T12:48:51.274Z,2874.38
2018-10-05T12:49:51.876Z,2868.75
2018-10-05T12:50:52.133Z,2126.25
2018-10-05T12:51:53.498Z,2176.88
2018-10-05T12:52:53.866Z,2171.25
2018-10-05T12:53:54.409Z,1665
2018-10-05T12:54:55.679Z,1490.63
2018-10-05T12:55:56.772Z,2199.38
2018-10-05T12:56:57.147Z,2666.25
2018-10-05T12:57:59.668Z,2677.5
2018-10-05T12:58:59.704Z,2688.75
2018-10-05T13:00:00.227Z,2716.88
2018-10-05T13:01:01.343Z,2739.38
2018-10-05T13:02:01.177Z,2739.38
2018-10-05T13:03:02.588Z,2722.5
2018-10-05T13:04:02.428Z,2677.5
2018-10-05T13:05:04.474Z,2626.88
2018-10-05T13:06:04.226Z,2576.25
2018-10-05T13:07:05.039Z,2531.25
2018-10-05T13:08:05.845Z,2503.13
2018-10-05T13:09:06.931Z,2475
2018-10-05T13:10:07.301Z,2441.25
2018-10-05T13:11:08.673Z,2424.38
2018-10-05T13:12:08.484Z,2413.13
2018-10-05T13:13:09.926Z,2390.63
2018-10-05T13:14:09.517Z,2356.88
2018-10-05T13:15:11.033Z,2340
2018-10-05T13:16:14.242Z,2295
2018-10-05T13:17:14.184Z,2283.75
2018-10-05T13:18:14.036Z,2283.75
2018-10-05T13:19:15.121Z,2126.25
2018-10-05T13:20:16.039Z,1625.63
2018-10-05T13:21:20.396Z,1541.25
2018-10-05T13:22:21.695Z,1974.38
2018-10-05T13:23:20.653Z,1749.38
2018-10-05T13:24:21.313Z,1743.75
2018-10-05T13:25:21.974Z,1068.75
2018-10-05T13:26:22.785Z,776.25
2018-10-05T13:27:23.905Z,1096.88
2018-10-05T13:28:25.505Z,1102.5
2018-10-05T13:29:26.252Z,961.88
2018-10-05T13:30:27.061Z,810
2018-10-05T13:31:28.707Z,540